sensor_id;sensor_type;location;lat;lon;timestamp;pressure;altitude;pressure_sealevel;temperature
54746;BMP180;40640;48.130;11.356;2023-08-24T00:03:45;95993.00;;;26.30
54746;BMP180;40640;48.130;11.356;2023-08-24T00:07:50;95985.00;;;26.30
54746;BMP180;40640;48.130;11.356;2023-08-24T00:11:54;95980.00;;;26.30
54746;BMP180;40640;48.130;11.356;2023-08-24T00:15:57;95984.00;;;26.20
54746;BMP180;40640;48.130;11.356;2023-08-24T00:20:00;95982.00;;;26.10
54746;BMP180;40640;48.130;11.356;2023-08-24T00:24:07;95981.00;;;26.10
54746;BMP180;40640;48.130;11.356;2023-08-24T00:28:10;95981.00;;;26.00
54746;BMP180;40640;48.130;11.356;2023-08-24T00:32:13;95976.00;;;26.00
54746;BMP180;40640;48.130;11.356;2023-08-24T00:36:16;95964.00;;;25.90
54746;BMP180;40640;48.130;11.356;2023-08-24T00:40:22;95965.00;;;25.90
54746;BMP180;40640;48.130;11.356;2023-08-24T00:44:26;95970.00;;;25.80
54746;BMP180;40640;48.130;11.356;2023-08-24T00:48:29;95970.00;;;25.80
54746;BMP180;40640;48.130;11.356;2023-08-24T00:52:35;95972.00;;;25.80
54746;BMP180;40640;48.130;11.356;2023-08-24T00:56:41;95974.00;;;25.70
54746;BMP180;40640;48.130;11.356;2023-08-24T01:00:44;95971.00;;;25.60
54746;BMP180;40640;48.130;11.356;2023-08-24T01:04:47;95975.00;;;25.50
54746;BMP180;40640;48.130;11.356;2023-08-24T01:08:50;95972.00;;;25.50
54746;BMP180;40640;48.130;11.356;2023-08-24T01:13:03;95970.00;;;25.50
54746;BMP180;40640;48.130;11.356;2023-08-24T01:17:12;95964.00;;;25.30
54746;BMP180;40640;48.130;11.356;2023-08-24T01:21:17;95962.00;;;25.20
54746;BMP180;40640;48.130;11.356;2023-08-24T01:25:32;95962.00;;;25.10
54746;BMP180;40640;48.130;11.356;2023-08-24T01:29:40;95966.00;;;25.10
54746;BMP180;40640;48.130;11.356;2023-08-24T01:33:43;95959.00;;;25.10
54746;BMP180;40640;48.130;11.356;2023-08-24T01:37:47;95958.00;;;25.10
54746;BMP180;40640;48.130;11.356;2023-08-24T01:41:53;95960.00;;;24.90
54746;BMP180;40640;48.130;11.356;2023-08-24T01:45:59;95958.00;;;24.80
54746;BMP180;40640;48.130;11.356;2023-08-24T01:50:05;95943.00;;;24.70
54746;BMP180;40640;48.130;11.356;2023-08-24T01:54:08;95938.00;;;24.70
54746;BMP180;40640;48.130;11.356;2023-08-24T01:58:11;95933.00;;;24.70
54746;BMP180;40640;48.130;11.356;2023-08-24T02:02:16;95934.00;;;24.60
54746;BMP180;40640;48.130;11.356;2023-08-24T02:06:19;95933.00;;;24.50
54746;BMP180;40640;48.130;11.356;2023-08-24T02:10:23;95921.00;;;24.60
54746;BMP180;40640;48.130;11.356;2023-08-24T02:14:26;95923.00;;;24.60
54746;BMP180;40640;48.130;11.356;2023-08-24T02:18:32;95931.00;;;24.50
54746;BMP180;40640;48.130;11.356;2023-08-24T02:22:35;95930.00;;;24.40
54746;BMP180;40640;48.130;11.356;2023-08-24T02:26:38;95922.00;;;24.30
54746;BMP180;40640;48.130;11.356;2023-08-24T02:30:41;95925.00;;;24.30
54746;BMP180;40640;48.130;11.356;2023-08-24T02:34:45;95923.00;;;24.10
54746;BMP180;40640;48.130;11.356;2023-08-24T02:38:48;95924.00;;;24.00
54746;BMP180;40640;48.130;11.356;2023-08-24T02:42:52;95921.00;;;23.80
54746;BMP180;40640;48.130;11.356;2023-08-24T02:46:55;95912.00;;;23.70
54746;BMP180;40640;48.130;11.356;2023-08-24T02:51:01;95901.00;;;23.70
54746;BMP180;40640;48.130;11.356;2023-08-24T02:55:06;95896.00;;;23.80
54746;BMP180;40640;48.130;11.356;2023-08-24T02:59:09;95892.00;;;23.70
54746;BMP180;40640;48.130;11.356;2023-08-24T03:03:13;95892.00;;;23.80
54746;BMP180;40640;48.130;11.356;2023-08-24T03:07:17;95884.00;;;23.80
54746;BMP180;40640;48.130;11.356;2023-08-24T03:11:21;95885.00;;;23.60
54746;BMP180;40640;48.130;11.356;2023-08-24T03:15:25;95876.00;;;23.60
54746;BMP180;40640;48.130;11.356;2023-08-24T03:19:28;95879.00;;;23.60
54746;BMP180;40640;48.130;11.356;2023-08-24T03:23:33;95880.00;;;23.60
54746;BMP180;40640;48.130;11.356;2023-08-24T03:27:37;95881.00;;;23.70
54746;BMP180;40640;48.130;11.356;2023-08-24T03:31:41;95872.00;;;23.70
54746;BMP180;40640;48.130;11.356;2023-08-24T03:35:43;95876.00;;;23.70
54746;BMP180;40640;48.130;11.356;2023-08-24T03:39:48;95876.00;;;23.60
54746;BMP180;40640;48.130;11.356;2023-08-24T03:43:52;95875.00;;;23.50
54746;BMP180;40640;48.130;11.356;2023-08-24T03:47:56;95875.00;;;23.40
54746;BMP180;40640;48.130;11.356;2023-08-24T03:52:00;95875.00;;;23.50
54746;BMP180;40640;48.130;11.356;2023-08-24T03:56:06;95870.00;;;23.50
54746;BMP180;40640;48.130;11.356;2023-08-24T04:00:10;95875.00;;;23.40
54746;BMP180;40640;48.130;11.356;2023-08-24T04:04:15;95889.00;;;23.40
54746;BMP180;40640;48.130;11.356;2023-08-24T04:08:18;95885.00;;;23.40
54746;BMP180;40640;48.130;11.356;2023-08-24T04:12:24;95885.00;;;23.40
54746;BMP180;40640;48.130;11.356;2023-08-24T04:16:27;95891.00;;;23.30
54746;BMP180;40640;48.130;11.356;2023-08-24T04:20:30;95886.00;;;23.20
54746;BMP180;40640;48.130;11.356;2023-08-24T04:24:33;95886.00;;;23.20
54746;BMP180;40640;48.130;11.356;2023-08-24T04:28:37;95888.00;;;23.10
54746;BMP180;40640;48.130;11.356;2023-08-24T04:32:40;95899.00;;;23.10
54746;BMP180;40640;48.130;11.356;2023-08-24T04:36:43;95901.00;;;23.00
54746;BMP180;40640;48.130;11.356;2023-08-24T04:40:48;95896.00;;;23.10
54746;BMP180;40640;48.130;11.356;2023-08-24T04:44:53;95893.00;;;23.10
54746;BMP180;40640;48.130;11.356;2023-08-24T04:48:57;95895.00;;;23.10
54746;BMP180;40640;48.130;11.356;2023-08-24T04:53:00;95885.00;;;23.20
54746;BMP180;40640;48.130;11.356;2023-08-24T04:57:04;95890.00;;;23.20
54746;BMP180;40640;48.130;11.356;2023-08-24T05:01:09;95888.00;;;23.30
54746;BMP180;40640;48.130;11.356;2023-08-24T05:05:14;95891.00;;;23.40
54746;BMP180;40640;48.130;11.356;2023-08-24T05:09:17;95887.00;;;23.40
54746;BMP180;40640;48.130;11.356;2023-08-24T05:13:20;95883.00;;;23.50
54746;BMP180;40640;48.130;11.356;2023-08-24T05:17:25;95882.00;;;23.60
54746;BMP180;40640;48.130;11.356;2023-08-24T05:21:29;95879.00;;;23.70
54746;BMP180;40640;48.130;11.356;2023-08-24T05:25:32;95872.00;;;23.70
54746;BMP180;40640;48.130;11.356;2023-08-24T05:29:36;95875.00;;;23.60
54746;BMP180;40640;48.130;11.356;2023-08-24T05:33:40;95873.00;;;23.60
54746;BMP180;40640;48.130;11.356;2023-08-24T05:37:43;95874.00;;;23.70
54746;BMP180;40640;48.130;11.356;2023-08-24T05:41:46;95887.00;;;23.90
54746;BMP180;40640;48.130;11.356;2023-08-24T05:45:49;95878.00;;;24.00
54746;BMP180;40640;48.130;11.356;2023-08-24T05:49:53;95882.00;;;24.30
54746;BMP180;40640;48.130;11.356;2023-08-24T05:53:56;95882.00;;;25.00
54746;BMP180;40640;48.130;11.356;2023-08-24T05:58:00;95876.00;;;25.80
54746;BMP180;40640;48.130;11.356;2023-08-24T06:02:03;95869.00;;;26.50
54746;BMP180;40640;48.130;11.356;2023-08-24T06:06:07;95871.00;;;27.50
54746;BMP180;40640;48.130;11.356;2023-08-24T06:10:11;95872.00;;;28.60
54746;BMP180;40640;48.130;11.356;2023-08-24T06:14:14;95867.00;;;28.80
54746;BMP180;40640;48.130;11.356;2023-08-24T06:18:18;95866.00;;;29.30
54746;BMP180;40640;48.130;11.356;2023-08-24T06:22:22;95859.00;;;30.10
54746;BMP180;40640;48.130;11.356;2023-08-24T06:26:25;95865.00;;;30.60
54746;BMP180;40640;48.130;11.356;2023-08-24T06:30:28;95858.00;;;31.50
54746;BMP180;40640;48.130;11.356;2023-08-24T06:34:34;95860.00;;;32.10
54746;BMP180;40640;48.130;11.356;2023-08-24T06:38:38;95853.00;;;32.60
54746;BMP180;40640;48.130;11.356;2023-08-24T06:42:41;95862.00;;;33.00
54746;BMP180;40640;48.130;11.356;2023-08-24T06:46:44;95855.00;;;33.00
54746;BMP180;40640;48.130;11.356;2023-08-24T06:50:48;95847.00;;;33.30
54746;BMP180;40640;48.130;11.356;2023-08-24T06:54:52;95856.00;;;34.00
54746;BMP180;40640;48.130;11.356;2023-08-24T06:58:57;95851.00;;;34.30
54746;BMP180;40640;48.130;11.356;2023-08-24T07:03:00;95844.00;;;34.60
54746;BMP180;40640;48.130;11.356;2023-08-24T07:07:03;95834.00;;;34.60
54746;BMP180;40640;48.130;11.356;2023-08-24T07:11:07;95829.00;;;35.80
54746;BMP180;40640;48.130;11.356;2023-08-24T07:15:10;95831.00;;;35.70
54746;BMP180;40640;48.130;11.356;2023-08-24T07:19:13;95831.00;;;36.80
54746;BMP180;40640;48.130;11.356;2023-08-24T07:23:18;95833.00;;;37.10
54746;BMP180;40640;48.130;11.356;2023-08-24T07:27:22;95832.00;;;37.20
54746;BMP180;40640;48.130;11.356;2023-08-24T07:31:25;95827.00;;;37.50
54746;BMP180;40640;48.130;11.356;2023-08-24T07:35:28;95823.00;;;37.50
54746;BMP180;40640;48.130;11.356;2023-08-24T07:39:32;95824.00;;;38.00
54746;BMP180;40640;48.130;11.356;2023-08-24T07:43:36;95814.00;;;38.50
54746;BMP180;40640;48.130;11.356;2023-08-24T07:47:39;95815.00;;;39.20
54746;BMP180;40640;48.130;11.356;2023-08-24T07:51:42;95814.00;;;40.30
54746;BMP180;40640;48.130;11.356;2023-08-24T07:55:45;95815.00;;;40.70
54746;BMP180;40640;48.130;11.356;2023-08-24T07:59:50;95822.00;;;41.20
54746;BMP180;40640;48.130;11.356;2023-08-24T08:03:53;95823.00;;;41.30
54746;BMP180;40640;48.130;11.356;2023-08-24T08:07:56;95818.00;;;41.30
54746;BMP180;40640;48.130;11.356;2023-08-24T08:11:58;95823.00;;;41.60
54746;BMP180;40640;48.130;11.356;2023-08-24T08:16:03;95813.00;;;42.60
54746;BMP180;40640;48.130;11.356;2023-08-24T08:20:07;95808.00;;;43.10
54746;BMP180;40640;48.130;11.356;2023-08-24T08:24:10;95821.00;;;42.50
54746;BMP180;40640;48.130;11.356;2023-08-24T08:28:25;95819.00;;;42.80
54746;BMP180;40640;48.130;11.356;2023-08-24T08:32:29;95815.00;;;43.10
54746;BMP180;40640;48.130;11.356;2023-08-24T08:36:33;95816.00;;;42.20
54746;BMP180;40640;48.130;11.356;2023-08-24T08:40:37;95815.00;;;42.50
54746;BMP180;40640;48.130;11.356;2023-08-24T08:44:41;95812.00;;;42.90
54746;BMP180;40640;48.130;11.356;2023-08-24T08:48:47;95812.00;;;43.90
54746;BMP180;40640;48.130;11.356;2023-08-24T08:52:52;95813.00;;;43.80
54746;BMP180;40640;48.130;11.356;2023-08-24T08:56:56;95815.00;;;42.80
54746;BMP180;40640;48.130;11.356;2023-08-24T09:00:59;95808.00;;;42.80
54746;BMP180;40640;48.130;11.356;2023-08-24T09:05:07;95818.00;;;41.60
54746;BMP180;40640;48.130;11.356;2023-08-24T09:09:11;95803.00;;;41.90
54746;BMP180;40640;48.130;11.356;2023-08-24T09:13:14;95798.00;;;41.40
54746;BMP180;40640;48.130;11.356;2023-08-24T09:17:20;95776.00;;;40.30
54746;BMP180;40640;48.130;11.356;2023-08-24T09:21:25;95773.00;;;39.40
54746;BMP180;40640;48.130;11.356;2023-08-24T09:25:28;95770.00;;;38.90
54746;BMP180;40640;48.130;11.356;2023-08-24T09:29:36;95760.00;;;38.50
54746;BMP180;40640;48.130;11.356;2023-08-24T09:33:42;95763.00;;;38.20
54746;BMP180;40640;48.130;11.356;2023-08-24T09:37:49;95769.00;;;37.80
54746;BMP180;40640;48.130;11.356;2023-08-24T09:41:53;95777.00;;;37.60
54746;BMP180;40640;48.130;11.356;2023-08-24T09:45:56;95765.00;;;37.20
54746;BMP180;40640;48.130;11.356;2023-08-24T09:50:00;95752.00;;;37.10
54746;BMP180;40640;48.130;11.356;2023-08-24T09:54:06;95748.00;;;36.80
54746;BMP180;40640;48.130;11.356;2023-08-24T09:58:10;95742.00;;;37.00
54746;BMP180;40640;48.130;11.356;2023-08-24T10:02:16;95734.00;;;36.90
54746;BMP180;40640;48.130;11.356;2023-08-24T10:06:23;95733.00;;;37.00
54746;BMP180;40640;48.130;11.356;2023-08-24T10:10:29;95724.00;;;36.40
54746;BMP180;40640;48.130;11.356;2023-08-24T10:14:41;95716.00;;;37.10
54746;BMP180;40640;48.130;11.356;2023-08-24T10:18:45;95708.00;;;36.80
54746;BMP180;40640;48.130;11.356;2023-08-24T10:22:50;95709.00;;;36.50
54746;BMP180;40640;48.130;11.356;2023-08-24T10:26:55;95693.00;;;36.70
54746;BMP180;40640;48.130;11.356;2023-08-24T10:30:59;95700.00;;;36.50
54746;BMP180;40640;48.130;11.356;2023-08-24T10:35:04;95690.00;;;36.50
54746;BMP180;40640;48.130;11.356;2023-08-24T10:39:08;95682.00;;;36.40
54746;BMP180;40640;48.130;11.356;2023-08-24T10:43:13;95680.00;;;36.30
54746;BMP180;40640;48.130;11.356;2023-08-24T10:47:19;95672.00;;;36.40
54746;BMP180;40640;48.130;11.356;2023-08-24T10:51:23;95664.00;;;36.40
54746;BMP180;40640;48.130;11.356;2023-08-24T10:55:28;95661.00;;;36.40
54746;BMP180;40640;48.130;11.356;2023-08-24T10:59:35;95647.00;;;36.60
54746;BMP180;40640;48.130;11.356;2023-08-24T11:03:55;95642.00;;;36.80
54746;BMP180;40640;48.130;11.356;2023-08-24T11:07:59;95633.00;;;36.70
54746;BMP180;40640;48.130;11.356;2023-08-24T11:12:03;95629.00;;;36.70
54746;BMP180;40640;48.130;11.356;2023-08-24T11:16:38;95630.00;;;36.60
54746;BMP180;40640;48.130;11.356;2023-08-24T11:20:42;95617.00;;;37.00
54746;BMP180;40640;48.130;11.356;2023-08-24T11:24:46;95618.00;;;37.00
54746;BMP180;40640;48.130;11.356;2023-08-24T11:28:53;95602.00;;;37.20
54746;BMP180;40640;48.130;11.356;2023-08-24T11:32:57;95602.00;;;37.40
54746;BMP180;40640;48.130;11.356;2023-08-24T11:37:01;95589.00;;;38.20
54746;BMP180;40640;48.130;11.356;2023-08-24T11:41:10;95588.00;;;38.60
54746;BMP180;40640;48.130;11.356;2023-08-24T11:45:13;95583.00;;;39.70
54746;BMP180;40640;48.130;11.356;2023-08-24T11:49:19;95577.00;;;41.50
54746;BMP180;40640;48.130;11.356;2023-08-24T11:53:22;95571.00;;;43.00
54746;BMP180;40640;48.130;11.356;2023-08-24T11:57:25;95572.00;;;42.30
54746;BMP180;40640;48.130;11.356;2023-08-24T12:01:29;95561.00;;;44.40
54746;BMP180;40640;48.130;11.356;2023-08-24T12:05:34;95560.00;;;44.10
54746;BMP180;40640;48.130;11.356;2023-08-24T12:09:38;95557.00;;;44.90
54746;BMP180;40640;48.130;11.356;2023-08-24T12:13:45;95553.00;;;44.90
54746;BMP180;40640;48.130;11.356;2023-08-24T12:17:48;95558.00;;;46.10
54746;BMP180;40640;48.130;11.356;2023-08-24T12:21:53;95553.00;;;46.20
54746;BMP180;40640;48.130;11.356;2023-08-24T12:25:55;95548.00;;;45.90
54746;BMP180;40640;48.130;11.356;2023-08-24T12:30:00;95547.00;;;46.00
54746;BMP180;40640;48.130;11.356;2023-08-24T12:34:05;95542.00;;;46.90
54746;BMP180;40640;48.130;11.356;2023-08-24T12:38:11;95546.00;;;46.50
54746;BMP180;40640;48.130;11.356;2023-08-24T12:42:14;95546.00;;;46.10
54746;BMP180;40640;48.130;11.356;2023-08-24T12:46:17;95533.00;;;45.50
54746;BMP180;40640;48.130;11.356;2023-08-24T12:50:20;95513.00;;;47.20
54746;BMP180;40640;48.130;11.356;2023-08-24T12:54:24;95515.00;;;48.40
54746;BMP180;40640;48.130;11.356;2023-08-24T12:58:27;95510.00;;;47.60
54746;BMP180;40640;48.130;11.356;2023-08-24T13:02:30;95514.00;;;47.60
54746;BMP180;40640;48.130;11.356;2023-08-24T13:06:40;95514.00;;;47.80
54746;BMP180;40640;48.130;11.356;2023-08-24T13:10:44;95500.00;;;48.30
54746;BMP180;40640;48.130;11.356;2023-08-24T13:14:47;95498.00;;;47.20
54746;BMP180;40640;48.130;11.356;2023-08-24T13:18:50;95498.00;;;46.30
54746;BMP180;40640;48.130;11.356;2023-08-24T13:22:53;95489.00;;;46.40
54746;BMP180;40640;48.130;11.356;2023-08-24T13:26:57;95485.00;;;45.60
54746;BMP180;40640;48.130;11.356;2023-08-24T13:31:00;95476.00;;;45.60
54746;BMP180;40640;48.130;11.356;2023-08-24T13:35:03;95468.00;;;45.20
54746;BMP180;40640;48.130;11.356;2023-08-24T13:39:09;95464.00;;;45.30
54746;BMP180;40640;48.130;11.356;2023-08-24T13:43:13;95463.00;;;44.40
54746;BMP180;40640;48.130;11.356;2023-08-24T13:47:16;95463.00;;;44.50
54746;BMP180;40640;48.130;11.356;2023-08-24T13:51:19;95463.00;;;43.90
54746;BMP180;40640;48.130;11.356;2023-08-24T13:55:22;95463.00;;;43.10
54746;BMP180;40640;48.130;11.356;2023-08-24T13:59:27;95449.00;;;41.90
54746;BMP180;40640;48.130;11.356;2023-08-24T14:03:30;95458.00;;;41.40
54746;BMP180;40640;48.130;11.356;2023-08-24T14:07:33;95461.00;;;41.00
54746;BMP180;40640;48.130;11.356;2023-08-24T14:11:37;95451.00;;;40.60
54746;BMP180;40640;48.130;11.356;2023-08-24T14:15:42;95453.00;;;40.50
54746;BMP180;40640;48.130;11.356;2023-08-24T14:19:45;95434.00;;;40.10
54746;BMP180;40640;48.130;11.356;2023-08-24T14:23:49;95445.00;;;39.70
54746;BMP180;40640;48.130;11.356;2023-08-24T14:27:52;95446.00;;;39.30
54746;BMP180;40640;48.130;11.356;2023-08-24T14:32:08;95449.00;;;39.10
54746;BMP180;40640;48.130;11.356;2023-08-24T14:36:11;95446.00;;;38.60
54746;BMP180;40640;48.130;11.356;2023-08-24T14:40:14;95447.00;;;38.00
54746;BMP180;40640;48.130;11.356;2023-08-24T14:44:18;95445.00;;;37.80
54746;BMP180;40640;48.130;11.356;2023-08-24T14:48:23;95438.00;;;37.90
54746;BMP180;40640;48.130;11.356;2023-08-24T14:52:26;95433.00;;;37.80
54746;BMP180;40640;48.130;11.356;2023-08-24T14:56:28;95423.00;;;37.40
54746;BMP180;40640;48.130;11.356;2023-08-24T15:00:31;95427.00;;;37.30
54746;BMP180;40640;48.130;11.356;2023-08-24T15:04:36;95426.00;;;37.30
54746;BMP180;40640;48.130;11.356;2023-08-24T15:08:39;95432.00;;;37.40
54746;BMP180;40640;48.130;11.356;2023-08-24T15:12:43;95422.00;;;37.30
54746;BMP180;40640;48.130;11.356;2023-08-24T15:16:46;95420.00;;;37.20
54746;BMP180;40640;48.130;11.356;2023-08-24T15:20:51;95411.00;;;37.30
54746;BMP180;40640;48.130;11.356;2023-08-24T15:24:54;95395.00;;;37.30
54746;BMP180;40640;48.130;11.356;2023-08-24T15:29:08;95387.00;;;37.30
54746;BMP180;40640;48.130;11.356;2023-08-24T15:33:12;95391.00;;;37.30
54746;BMP180;40640;48.130;11.356;2023-08-24T15:37:16;95391.00;;;37.20
54746;BMP180;40640;48.130;11.356;2023-08-24T15:41:19;95376.00;;;36.80
54746;BMP180;40640;48.130;11.356;2023-08-24T15:45:22;95369.00;;;36.60
54746;BMP180;40640;48.130;11.356;2023-08-24T15:49:25;95366.00;;;36.60
54746;BMP180;40640;48.130;11.356;2023-08-24T15:53:29;95373.00;;;36.60
54746;BMP180;40640;48.130;11.356;2023-08-24T15:57:32;95365.00;;;36.40
54746;BMP180;40640;48.130;11.356;2023-08-24T16:01:35;95367.00;;;36.40
54746;BMP180;40640;48.130;11.356;2023-08-24T16:05:38;95374.00;;;36.30
54746;BMP180;40640;48.130;11.356;2023-08-24T16:09:43;95366.00;;;36.20
54746;BMP180;40640;48.130;11.356;2023-08-24T16:13:46;95359.00;;;36.20
54746;BMP180;40640;48.130;11.356;2023-08-24T16:17:48;95369.00;;;36.10
54746;BMP180;40640;48.130;11.356;2023-08-24T16:21:52;95365.00;;;36.00
54746;BMP180;40640;48.130;11.356;2023-08-24T16:25:56;95360.00;;;35.90
54746;BMP180;40640;48.130;11.356;2023-08-24T16:29:59;95358.00;;;35.80
54746;BMP180;40640;48.130;11.356;2023-08-24T16:34:02;95359.00;;;35.70
54746;BMP180;40640;48.130;11.356;2023-08-24T16:38:05;95354.00;;;35.60
54746;BMP180;40640;48.130;11.356;2023-08-24T16:42:09;95355.00;;;35.40
54746;BMP180;40640;48.130;11.356;2023-08-24T16:46:12;95356.00;;;35.10
54746;BMP180;40640;48.130;11.356;2023-08-24T16:50:15;95356.00;;;35.00
54746;BMP180;40640;48.130;11.356;2023-08-24T16:54:18;95368.00;;;34.80
54746;BMP180;40640;48.130;11.356;2023-08-24T16:58:23;95373.00;;;34.70
54746;BMP180;40640;48.130;11.356;2023-08-24T17:02:26;95384.00;;;34.50
54746;BMP180;40640;48.130;11.356;2023-08-24T17:06:29;95392.00;;;34.30
54746;BMP180;40640;48.130;11.356;2023-08-24T17:10:37;95402.00;;;34.10
54746;BMP180;40640;48.130;11.356;2023-08-24T17:14:42;95416.00;;;34.00
54746;BMP180;40640;48.130;11.356;2023-08-24T17:18:45;95424.00;;;33.80
54746;BMP180;40640;48.130;11.356;2023-08-24T17:22:48;95417.00;;;33.70
54746;BMP180;40640;48.130;11.356;2023-08-24T17:26:51;95426.00;;;33.50
54746;BMP180;40640;48.130;11.356;2023-08-24T17:30:55;95424.00;;;33.30
54746;BMP180;40640;48.130;11.356;2023-08-24T17:34:58;95435.00;;;33.10
54746;BMP180;40640;48.130;11.356;2023-08-24T17:39:01;95449.00;;;32.90
54746;BMP180;40640;48.130;11.356;2023-08-24T17:43:09;95452.00;;;32.80
54746;BMP180;40640;48.130;11.356;2023-08-24T17:47:13;95466.00;;;32.60
54746;BMP180;40640;48.130;11.356;2023-08-24T17:51:16;95468.00;;;32.50
54746;BMP180;40640;48.130;11.356;2023-08-24T17:55:19;95465.00;;;32.40
54746;BMP180;40640;48.130;11.356;2023-08-24T17:59:22;95462.00;;;32.30
54746;BMP180;40640;48.130;11.356;2023-08-24T18:03:27;95447.00;;;32.10
54746;BMP180;40640;48.130;11.356;2023-08-24T18:07:30;95438.00;;;32.00
54746;BMP180;40640;48.130;11.356;2023-08-24T18:11:33;95450.00;;;31.90
54746;BMP180;40640;48.130;11.356;2023-08-24T18:15:37;95452.00;;;31.80
54746;BMP180;40640;48.130;11.356;2023-08-24T18:19:42;95443.00;;;31.70
54746;BMP180;40640;48.130;11.356;2023-08-24T18:23:45;95440.00;;;31.60
54746;BMP180;40640;48.130;11.356;2023-08-24T18:27:49;95438.00;;;31.60
54746;BMP180;40640;48.130;11.356;2023-08-24T18:31:52;95449.00;;;31.50
54746;BMP180;40640;48.130;11.356;2023-08-24T18:35:56;95429.00;;;31.40
54746;BMP180;40640;48.130;11.356;2023-08-24T18:39:59;95432.00;;;31.30
54746;BMP180;40640;48.130;11.356;2023-08-24T18:44:02;95416.00;;;31.30
54746;BMP180;40640;48.130;11.356;2023-08-24T18:48:05;95379.00;;;31.20
54746;BMP180;40640;48.130;11.356;2023-08-24T18:52:10;95353.00;;;31.00
54746;BMP180;40640;48.130;11.356;2023-08-24T18:56:13;95357.00;;;31.00
54746;BMP180;40640;48.130;11.356;2023-08-24T19:00:16;95347.00;;;30.90
54746;BMP180;40640;48.130;11.356;2023-08-24T19:04:19;95368.00;;;30.70
54746;BMP180;40640;48.130;11.356;2023-08-24T19:08:24;95396.00;;;30.60
54746;BMP180;40640;48.130;11.356;2023-08-24T19:12:27;95428.00;;;30.60
54746;BMP180;40640;48.130;11.356;2023-08-24T19:16:29;95461.00;;;30.60
54746;BMP180;40640;48.130;11.356;2023-08-24T19:20:32;95468.00;;;30.60
54746;BMP180;40640;48.130;11.356;2023-08-24T19:24:37;95464.00;;;30.50
54746;BMP180;40640;48.130;11.356;2023-08-24T19:28:40;95450.00;;;30.40
54746;BMP180;40640;48.130;11.356;2023-08-24T19:32:43;95415.00;;;30.20
54746;BMP180;40640;48.130;11.356;2023-08-24T19:36:46;95422.00;;;30.20
54746;BMP180;40640;48.130;11.356;2023-08-24T19:40:50;95421.00;;;30.20
54746;BMP180;40640;48.130;11.356;2023-08-24T19:44:53;95420.00;;;30.00
54746;BMP180;40640;48.130;11.356;2023-08-24T19:48:57;95426.00;;;29.90
54746;BMP180;40640;48.130;11.356;2023-08-24T19:53:00;95438.00;;;29.90
54746;BMP180;40640;48.130;11.356;2023-08-24T19:57:04;95460.00;;;29.90
54746;BMP180;40640;48.130;11.356;2023-08-24T20:01:09;95482.00;;;29.90
54746;BMP180;40640;48.130;11.356;2023-08-24T20:05:14;95518.00;;;29.90
54746;BMP180;40640;48.130;11.356;2023-08-24T20:09:17;95559.00;;;29.90
54746;BMP180;40640;48.130;11.356;2023-08-24T20:13:21;95579.00;;;29.90
54746;BMP180;40640;48.130;11.356;2023-08-24T20:17:27;95601.00;;;29.90
54746;BMP180;40640;48.130;11.356;2023-08-24T20:21:31;95616.00;;;29.90
54746;BMP180;40640;48.130;11.356;2023-08-24T20:25:34;95674.00;;;29.90
54746;BMP180;40640;48.130;11.356;2023-08-24T20:29:38;95830.00;;;29.90
54746;BMP180;40640;48.130;11.356;2023-08-24T20:33:41;95963.00;;;29.30
54746;BMP180;40640;48.130;11.356;2023-08-24T20:37:44;95945.00;;;28.50
54746;BMP180;40640;48.130;11.356;2023-08-24T20:41:47;95896.00;;;27.70
54746;BMP180;40640;48.130;11.356;2023-08-24T20:45:51;95896.00;;;27.50
54746;BMP180;40640;48.130;11.356;2023-08-24T20:49:55;95888.00;;;27.20
54746;BMP180;40640;48.130;11.356;2023-08-24T20:53:58;95936.00;;;26.70
54746;BMP180;40640;48.130;11.356;2023-08-24T20:58:01;95916.00;;;26.30
54746;BMP180;40640;48.130;11.356;2023-08-24T21:02:06;95912.00;;;26.60
54746;BMP180;40640;48.130;11.356;2023-08-24T21:06:09;95902.00;;;25.60
54746;BMP180;40640;48.130;11.356;2023-08-24T21:10:12;95915.00;;;25.60
54746;BMP180;40640;48.130;11.356;2023-08-24T21:14:15;95913.00;;;25.50
54746;BMP180;40640;48.130;11.356;2023-08-24T21:18:19;95910.00;;;25.40
54746;BMP180;40640;48.130;11.356;2023-08-24T21:22:22;95893.00;;;25.40
54746;BMP180;40640;48.130;11.356;2023-08-24T21:26:25;95901.00;;;25.30
54746;BMP180;40640;48.130;11.356;2023-08-24T21:30:28;95899.00;;;25.30
54746;BMP180;40640;48.130;11.356;2023-08-24T21:34:32;95889.00;;;25.20
54746;BMP180;40640;48.130;11.356;2023-08-24T21:38:35;95881.00;;;25.00
54746;BMP180;40640;48.130;11.356;2023-08-24T21:42:38;95891.00;;;24.80
54746;BMP180;40640;48.130;11.356;2023-08-24T21:46:41;95879.00;;;25.00
54746;BMP180;40640;48.130;11.356;2023-08-24T21:50:46;95917.00;;;24.70
54746;BMP180;40640;48.130;11.356;2023-08-24T21:54:48;95920.00;;;24.90
54746;BMP180;40640;48.130;11.356;2023-08-24T21:58:51;95898.00;;;24.80
54746;BMP180;40640;48.130;11.356;2023-08-24T22:02:54;95884.00;;;24.50
54746;BMP180;40640;48.130;11.356;2023-08-24T22:06:58;95850.00;;;24.40
54746;BMP180;40640;48.130;11.356;2023-08-24T22:11:01;95812.00;;;24.40
54746;BMP180;40640;48.130;11.356;2023-08-24T22:15:05;95814.00;;;24.40
54746;BMP180;40640;48.130;11.356;2023-08-24T22:19:08;95793.00;;;24.40
54746;BMP180;40640;48.130;11.356;2023-08-24T22:23:27;95788.00;;;24.40
54746;BMP180;40640;48.130;11.356;2023-08-24T22:27:30;95803.00;;;24.10
54746;BMP180;40640;48.130;11.356;2023-08-24T22:31:34;95798.00;;;24.10
54746;BMP180;40640;48.130;11.356;2023-08-24T22:35:37;95792.00;;;24.20
54746;BMP180;40640;48.130;11.356;2023-08-24T22:39:41;95785.00;;;24.00
54746;BMP180;40640;48.130;11.356;2023-08-24T22:43:44;95771.00;;;23.90
54746;BMP180;40640;48.130;11.356;2023-08-24T22:47:47;95729.00;;;23.70
54746;BMP180;40640;48.130;11.356;2023-08-24T22:51:51;95701.00;;;23.80
54746;BMP180;40640;48.130;11.356;2023-08-24T22:55:55;95700.00;;;23.80
54746;BMP180;40640;48.130;11.356;2023-08-24T22:59:58;95702.00;;;23.80
54746;BMP180;40640;48.130;11.356;2023-08-24T23:04:01;95702.00;;;23.90
54746;BMP180;40640;48.130;11.356;2023-08-24T23:08:04;95676.00;;;23.70